sensor_id;sensor_type;location;lat;lon;timestamp;temperature;humidity
2653;DHT22;1336;48.692;9.144;2023-02-01T06:00:45;5.00;97.20
2653;DHT22;1336;48.692;9.144;2023-02-01T06:01:37;5.00;97.20
2653;DHT22;1336;48.692;9.144;2023-02-01T06:02:27;5.00;97.20
2653;DHT22;1336;48.692;9.144;2023-02-01T06:03:19;4.90;97.20
2653;DHT22;1336;48.692;9.144;2023-02-01T06:04:10;4.90;97.20
2653;DHT22;1336;48.692;9.144;2023-02-01T06:05:02;4.90;97.20
2653;DHT22;1336;48.692;9.144;2023-02-01T06:05:53;4.90;97.20
2653;DHT22;1336;48.692;9.144;2023-02-01T06:06:44;4.90;97.20
2653;DHT22;1336;48.692;9.144;2023-02-01T06:07:35;4.90;97.20
2653;DHT22;1336;48.692;9.144;2023-02-01T06:08:27;4.90;97.20
2653;DHT22;1336;48.692;9.144;2023-02-01T06:09:18;4.90;97.20
2653;DHT22;1336;48.692;9.144;2023-02-01T06:10:10;5.00;97.20
2653;DHT22;1336;48.692;9.144;2023-02-01T06:11:02;5.00;97.20
2653;DHT22;1336;48.692;9.144;2023-02-01T06:11:54;4.90;97.20
2653;DHT22;1336;48.692;9.144;2023-02-01T06:12:45;4.90;97.20
2653;DHT22;1336;48.692;9.144;2023-02-01T06:13:37;4.90;97.20
2653;DHT22;1336;48.692;9.144;2023-02-01T06:14:29;4.90;97.20
2653;DHT22;1336;48.692;9.144;2023-02-01T06:15:21;4.90;97.20
2653;DHT22;1336;48.692;9.144;2023-02-01T06:16:13;4.90;97.20
2653;DHT22;1336;48.692;9.144;2023-02-01T06:17:05;4.90;97.20
2653;DHT22;1336;48.692;9.144;2023-02-01T06:17:57;4.90;97.20
2653;DHT22;1336;48.692;9.144;2023-02-01T06:18:49;4.90;97.20
2653;DHT22;1336;48.692;9.144;2023-02-01T06:19:39;4.80;97.20
2653;DHT22;1336;48.692;9.144;2023-02-01T06:20:31;4.80;97.20
2653;DHT22;1336;48.692;9.144;2023-02-01T06:21:22;4.80;97.20
2653;DHT22;1336;48.692;9.144;2023-02-01T06:22:14;4.80;97.20
2653;DHT22;1336;48.692;9.144;2023-02-01T06:23:05;4.80;97.20
2653;DHT22;1336;48.692;9.144;2023-02-01T06:23:57;4.70;97.20
2653;DHT22;1336;48.692;9.144;2023-02-01T06:24:48;4.70;97.20
2653;DHT22;1336;48.692;9.144;2023-02-01T06:25:40;4.70;97.20
2653;DHT22;1336;48.692;9.144;2023-02-01T06:26:31;4.70;97.20
2653;DHT22;1336;48.692;9.144;2023-02-01T06:27:23;4.70;97.20
2653;DHT22;1336;48.692;9.144;2023-02-01T06:28:14;4.70;97.20
2653;DHT22;1336;48.692;9.144;2023-02-01T06:29:05;4.70;97.20
2653;DHT22;1336;48.692;9.144;2023-02-01T06:29:56;4.60;97.20
2653;DHT22;1336;48.692;9.144;2023-02-01T06:30:48;4.60;97.20
2653;DHT22;1336;48.692;9.144;2023-02-01T06:31:40;4.60;97.20
2653;DHT22;1336;48.692;9.144;2023-02-01T06:32:33;4.60;97.20
2653;DHT22;1336;48.692;9.144;2023-02-01T06:33:24;4.60;97.20
2653;DHT22;1336;48.692;9.144;2023-02-01T06:34:16;4.60;97.20
2653;DHT22;1336;48.692;9.144;2023-02-01T06:35:07;4.60;97.20
2653;DHT22;1336;48.692;9.144;2023-02-01T06:36:03;4.60;97.20
2653;DHT22;1336;48.692;9.144;2023-02-01T06:36:54;4.60;97.20
2653;DHT22;1336;48.692;9.144;2023-02-01T06:37:46;4.60;97.20
2653;DHT22;1336;48.692;9.144;2023-02-01T06:38:37;4.60;97.20
2653;DHT22;1336;48.692;9.144;2023-02-01T06:39:29;4.60;97.20
2653;DHT22;1336;48.692;9.144;2023-02-01T06:40:19;4.60;97.20
2653;DHT22;1336;48.692;9.144;2023-02-01T06:41:11;4.60;97.20
2653;DHT22;1336;48.692;9.144;2023-02-01T06:42:02;4.60;97.20
2653;DHT22;1336;48.692;9.144;2023-02-01T06:42:54;4.60;97.20
2653;DHT22;1336;48.692;9.144;2023-02-01T06:43:45;4.60;97.20
2653;DHT22;1336;48.692;9.144;2023-02-01T06:44:36;4.60;97.20
2653;DHT22;1336;48.692;9.144;2023-02-01T06:45:27;4.60;97.20
2653;DHT22;1336;48.692;9.144;2023-02-01T06:46:19;4.60;97.20
2653;DHT22;1336;48.692;9.144;2023-02-01T06:47:11;4.60;97.20
2653;DHT22;1336;48.692;9.144;2023-02-01T06:48:03;4.60;97.20
2653;DHT22;1336;48.692;9.144;2023-02-01T06:48:53;4.60;97.20
2653;DHT22;1336;48.692;9.144;2023-02-01T06:49:46;4.70;97.20
2653;DHT22;1336;48.692;9.144;2023-02-01T06:50:36;4.60;97.20
2653;DHT22;1336;48.692;9.144;2023-02-01T06:51:28;4.60;97.20
2653;DHT22;1336;48.692;9.144;2023-02-01T06:52:20;4.70;97.20
2653;DHT22;1336;48.692;9.144;2023-02-01T06:53:11;4.70;97.20
2653;DHT22;1336;48.692;9.144;2023-02-01T06:54:02;4.70;97.20
2653;DHT22;1336;48.692;9.144;2023-02-01T06:54:53;4.70;97.20
2653;DHT22;1336;48.692;9.144;2023-02-01T06:55:51;4.70;97.20
2653;DHT22;1336;48.692;9.144;2023-02-01T06:56:43;4.70;97.20
2653;DHT22;1336;48.692;9.144;2023-02-01T06:57:34;4.70;97.20
2653;DHT22;1336;48.692;9.144;2023-02-01T06:58:28;4.70;97.20
2653;DHT22;1336;48.692;9.144;2023-02-01T06:59:19;4.70;97.20
2653;DHT22;1336;48.692;9.144;2023-02-01T07:00:12;4.70;97.20
2653;DHT22;1336;48.692;9.144;2023-02-01T07:01:05;4.70;97.20
2653;DHT22;1336;48.692;9.144;2023-02-01T07:01:57;4.70;97.20
2653;DHT22;1336;48.692;9.144;2023-02-01T07:02:50;4.70;97.20
2653;DHT22;1336;48.692;9.144;2023-02-01T07:03:42;4.70;97.20
2653;DHT22;1336;48.692;9.144;2023-02-01T07:04:33;4.70;97.20
2653;DHT22;1336;48.692;9.144;2023-02-01T07:05:25;4.70;97.20
2653;DHT22;1336;48.692;9.144;2023-02-01T07:06:15;4.70;97.20
2653;DHT22;1336;48.692;9.144;2023-02-01T07:07:07;4.70;97.20
2653;DHT22;1336;48.692;9.144;2023-02-01T07:07:58;4.70;97.20
2653;DHT22;1336;48.692;9.144;2023-02-01T07:08:50;4.70;97.20
2653;DHT22;1336;48.692;9.144;2023-02-01T07:09:40;4.70;97.20
2653;DHT22;1336;48.692;9.144;2023-02-01T07:10:33;4.70;97.20
2653;DHT22;1336;48.692;9.144;2023-02-01T07:11:24;4.70;97.20
2653;DHT22;1336;48.692;9.144;2023-02-01T07:12:18;4.70;97.20
2653;DHT22;1336;48.692;9.144;2023-02-01T07:13:09;4.70;97.20
2653;DHT22;1336;48.692;9.144;2023-02-01T07:14:01;4.70;97.20
2653;DHT22;1336;48.692;9.144;2023-02-01T07:14:52;4.70;97.20
2653;DHT22;1336;48.692;9.144;2023-02-01T07:15:43;4.70;97.20
2653;DHT22;1336;48.692;9.144;2023-02-01T07:16:34;4.80;97.20
2653;DHT22;1336;48.692;9.144;2023-02-01T07:17:26;4.80;97.20
2653;DHT22;1336;48.692;9.144;2023-02-01T07:18:18;4.80;97.20
2653;DHT22;1336;48.692;9.144;2023-02-01T07:19:09;4.80;97.20
2653;DHT22;1336;48.692;9.144;2023-02-01T07:20:01;4.80;97.20
2653;DHT22;1336;48.692;9.144;2023-02-01T07:20:52;4.80;97.20
2653;DHT22;1336;48.692;9.144;2023-02-01T07:21:44;4.80;97.20
2653;DHT22;1336;48.692;9.144;2023-02-01T07:22:34;4.90;97.20
2653;DHT22;1336;48.692;9.144;2023-02-01T07:23:27;4.90;97.20
2653;DHT22;1336;48.692;9.144;2023-02-01T07:24:18;4.90;97.20
2653;DHT22;1336;48.692;9.144;2023-02-01T07:25:09;4.90;97.20
2653;DHT22;1336;48.692;9.144;2023-02-01T07:26:02;5.00;97.20
2653;DHT22;1336;48.692;9.144;2023-02-01T07:26:54;5.00;97.20
2653;DHT22;1336;48.692;9.144;2023-02-01T07:27:44;5.00;97.20
2653;DHT22;1336;48.692;9.144;2023-02-01T07:28:36;5.00;97.20
2653;DHT22;1336;48.692;9.144;2023-02-01T07:29:28;5.00;97.20
2653;DHT22;1336;48.692;9.144;2023-02-01T07:30:19;5.00;97.20
2653;DHT22;1336;48.692;9.144;2023-02-01T07:31:12;5.00;97.20
2653;DHT22;1336;48.692;9.144;2023-02-01T07:32:09;5.10;97.20
2653;DHT22;1336;48.692;9.144;2023-02-01T07:32:59;5.10;97.20
2653;DHT22;1336;48.692;9.144;2023-02-01T07:33:52;5.10;97.20
2653;DHT22;1336;48.692;9.144;2023-02-01T07:34:43;5.10;97.20
2653;DHT22;1336;48.692;9.144;2023-02-01T07:35:35;5.10;97.20
2653;DHT22;1336;48.692;9.144;2023-02-01T07:36:25;5.10;97.20
2653;DHT22;1336;48.692;9.144;2023-02-01T07:37:17;5.10;97.20
2653;DHT22;1336;48.692;9.144;2023-02-01T07:38:08;5.10;97.20
2653;DHT22;1336;48.692;9.144;2023-02-01T07:39:00;5.10;97.20
2653;DHT22;1336;48.692;9.144;2023-02-01T07:39:51;5.10;97.20
2653;DHT22;1336;48.692;9.144;2023-02-01T07:40:43;5.10;97.20
2653;DHT22;1336;48.692;9.144;2023-02-01T07:41:33;5.10;97.20
2653;DHT22;1336;48.692;9.144;2023-02-01T07:42:25;5.10;97.20
2653;DHT22;1336;48.692;9.144;2023-02-01T07:43:16;5.20;97.20
2653;DHT22;1336;48.692;9.144;2023-02-01T07:44:08;5.20;97.20
2653;DHT22;1336;48.692;9.144;2023-02-01T07:44:59;5.20;97.20
2653;DHT22;1336;48.692;9.144;2023-02-01T07:45:51;5.20;97.20
2653;DHT22;1336;48.692;9.144;2023-02-01T07:46:43;5.20;97.20
2653;DHT22;1336;48.692;9.144;2023-02-01T07:47:34;5.20;97.20
2653;DHT22;1336;48.692;9.144;2023-02-01T07:48:26;5.20;97.20
2653;DHT22;1336;48.692;9.144;2023-02-01T07:49:18;5.20;97.20
2653;DHT22;1336;48.692;9.144;2023-02-01T07:50:13;5.20;97.20
2653;DHT22;1336;48.692;9.144;2023-02-01T07:51:08;5.20;97.20
2653;DHT22;1336;48.692;9.144;2023-02-01T07:51:59;5.20;97.20
2653;DHT22;1336;48.692;9.144;2023-02-01T07:52:51;5.30;97.20
2653;DHT22;1336;48.692;9.144;2023-02-01T07:53:44;5.30;97.20
2653;DHT22;1336;48.692;9.144;2023-02-01T07:54:36;5.30;97.20
2653;DHT22;1336;48.692;9.144;2023-02-01T07:55:27;5.30;97.20
2653;DHT22;1336;48.692;9.144;2023-02-01T07:56:20;5.30;97.20
2653;DHT22;1336;48.692;9.144;2023-02-01T07:57:11;5.40;97.20
2653;DHT22;1336;48.692;9.144;2023-02-01T07:58:03;5.40;97.20
2653;DHT22;1336;48.692;9.144;2023-02-01T07:58:54;5.40;97.20
2653;DHT22;1336;48.692;9.144;2023-02-01T07:59:46;5.40;97.20
2653;DHT22;1336;48.692;9.144;2023-02-01T08:00:53;5.50;97.20
2653;DHT22;1336;48.692;9.144;2023-02-01T08:02:02;5.50;97.20
2653;DHT22;1336;48.692;9.144;2023-02-01T08:02:54;5.50;97.20
2653;DHT22;1336;48.692;9.144;2023-02-01T08:03:45;5.50;97.20
2653;DHT22;1336;48.692;9.144;2023-02-01T08:04:38;5.50;97.20
2653;DHT22;1336;48.692;9.144;2023-02-01T08:05:28;5.50;97.20
2653;DHT22;1336;48.692;9.144;2023-02-01T08:06:21;5.50;97.20
2653;DHT22;1336;48.692;9.144;2023-02-01T08:07:12;5.50;97.20
2653;DHT22;1336;48.692;9.144;2023-02-01T08:08:05;5.50;97.20
2653;DHT22;1336;48.692;9.144;2023-02-01T08:08:56;5.50;97.20
2653;DHT22;1336;48.692;9.144;2023-02-01T08:09:48;5.50;97.20
2653;DHT22;1336;48.692;9.144;2023-02-01T08:10:38;5.50;97.20
2653;DHT22;1336;48.692;9.144;2023-02-01T08:11:31;5.50;97.20
2653;DHT22;1336;48.692;9.144;2023-02-01T08:12:22;5.50;97.20
2653;DHT22;1336;48.692;9.144;2023-02-01T08:13:13;5.50;97.20
2653;DHT22;1336;48.692;9.144;2023-02-01T08:14:05;5.50;97.20
2653;DHT22;1336;48.692;9.144;2023-02-01T08:14:57;5.50;97.20
2653;DHT22;1336;48.692;9.144;2023-02-01T08:15:48;5.50;97.20
2653;DHT22;1336;48.692;9.144;2023-02-01T08:16:39;5.50;97.20
2653;DHT22;1336;48.692;9.144;2023-02-01T08:17:31;5.50;97.20
2653;DHT22;1336;48.692;9.144;2023-02-01T08:18:22;5.50;97.20
2653;DHT22;1336;48.692;9.144;2023-02-01T08:19:13;5.50;97.20
2653;DHT22;1336;48.692;9.144;2023-02-01T08:20:08;5.50;97.20
2653;DHT22;1336;48.692;9.144;2023-02-01T08:21:03;5.50;97.20
2653;DHT22;1336;48.692;9.144;2023-02-01T08:21:55;5.50;97.20
2653;DHT22;1336;48.692;9.144;2023-02-01T08:22:46;5.50;97.20
2653;DHT22;1336;48.692;9.144;2023-02-01T08:23:39;5.50;97.20
2653;DHT22;1336;48.692;9.144;2023-02-01T08:24:30;5.50;97.20
2653;DHT22;1336;48.692;9.144;2023-02-01T08:25:22;5.50;97.20
2653;DHT22;1336;48.692;9.144;2023-02-01T08:26:15;5.50;97.20
2653;DHT22;1336;48.692;9.144;2023-02-01T08:27:07;5.50;97.20
2653;DHT22;1336;48.692;9.144;2023-02-01T08:27:58;5.50;97.20
2653;DHT22;1336;48.692;9.144;2023-02-01T08:28:52;5.50;97.20
2653;DHT22;1336;48.692;9.144;2023-02-01T08:29:43;5.50;97.20
2653;DHT22;1336;48.692;9.144;2023-02-01T08:30:36;5.50;97.20
2653;DHT22;1336;48.692;9.144;2023-02-01T08:31:28;5.50;97.20
2653;DHT22;1336;48.692;9.144;2023-02-01T08:32:20;5.50;97.20
2653;DHT22;1336;48.692;9.144;2023-02-01T08:33:11;5.50;97.20
2653;DHT22;1336;48.692;9.144;2023-02-01T08:34:03;5.50;97.20
2653;DHT22;1336;48.692;9.144;2023-02-01T08:34:54;5.60;97.20
2653;DHT22;1336;48.692;9.144;2023-02-01T08:35:47;5.60;97.20
2653;DHT22;1336;48.692;9.144;2023-02-01T08:36:38;5.60;97.20
2653;DHT22;1336;48.692;9.144;2023-02-01T08:37:31;5.60;97.20
2653;DHT22;1336;48.692;9.144;2023-02-01T08:38:22;5.70;97.20
2653;DHT22;1336;48.692;9.144;2023-02-01T08:39:14;5.70;97.20
2653;DHT22;1336;48.692;9.144;2023-02-01T08:40:07;5.80;97.20
2653;DHT22;1336;48.692;9.144;2023-02-01T08:41:04;5.80;97.20
2653;DHT22;1336;48.692;9.144;2023-02-01T08:41:55;5.90;97.20
2653;DHT22;1336;48.692;9.144;2023-02-01T08:43:05;5.90;97.20
2653;DHT22;1336;48.692;9.144;2023-02-01T08:43:57;6.00;97.20
2653;DHT22;1336;48.692;9.144;2023-02-01T08:44:48;6.00;97.20
2653;DHT22;1336;48.692;9.144;2023-02-01T08:45:39;6.10;97.20
2653;DHT22;1336;48.692;9.144;2023-02-01T08:46:30;6.20;97.20
2653;DHT22;1336;48.692;9.144;2023-02-01T08:47:22;6.20;97.20
2653;DHT22;1336;48.692;9.144;2023-02-01T08:48:13;6.30;97.20
2653;DHT22;1336;48.692;9.144;2023-02-01T08:49:04;6.40;97.20
2653;DHT22;1336;48.692;9.144;2023-02-01T08:49:55;6.40;97.20
2653;DHT22;1336;48.692;9.144;2023-02-01T08:50:48;6.40;97.20
2653;DHT22;1336;48.692;9.144;2023-02-01T08:51:39;6.50;97.20
2653;DHT22;1336;48.692;9.144;2023-02-01T08:52:31;6.50;97.20
2653;DHT22;1336;48.692;9.144;2023-02-01T08:53:22;6.50;97.20
2653;DHT22;1336;48.692;9.144;2023-02-01T08:54:13;6.60;97.20
2653;DHT22;1336;48.692;9.144;2023-02-01T08:55:05;6.60;97.20
2653;DHT22;1336;48.692;9.144;2023-02-01T08:55:57;6.60;97.20
2653;DHT22;1336;48.692;9.144;2023-02-01T08:56:49;6.60;97.20
2653;DHT22;1336;48.692;9.144;2023-02-01T08:57:40;6.60;97.20
2653;DHT22;1336;48.692;9.144;2023-02-01T08:58:32;6.60;97.20
2653;DHT22;1336;48.692;9.144;2023-02-01T08:59:22;6.50;97.20
2653;DHT22;1336;48.692;9.144;2023-02-01T09:00:16;6.50;97.20
2653;DHT22;1336;48.692;9.144;2023-02-01T09:01:09;6.50;97.20
2653;DHT22;1336;48.692;9.144;2023-02-01T09:02:02;6.50;97.20
2653;DHT22;1336;48.692;9.144;2023-02-01T09:02:53;6.50;97.20
2653;DHT22;1336;48.692;9.144;2023-02-01T09:03:45;6.50;97.20
2653;DHT22;1336;48.692;9.144;2023-02-01T09:04:36;6.50;97.20
2653;DHT22;1336;48.692;9.144;2023-02-01T09:05:28;6.50;97.20
2653;DHT22;1336;48.692;9.144;2023-02-01T09:06:21;6.50;97.20
2653;DHT22;1336;48.692;9.144;2023-02-01T09:07:12;6.50;97.20
2653;DHT22;1336;48.692;9.144;2023-02-01T09:08:04;6.50;97.20
2653;DHT22;1336;48.692;9.144;2023-02-01T09:08:56;6.50;97.20
2653;DHT22;1336;48.692;9.144;2023-02-01T09:09:47;6.40;97.20
2653;DHT22;1336;48.692;9.144;2023-02-01T09:10:39;6.40;97.20
2653;DHT22;1336;48.692;9.144;2023-02-01T09:11:30;6.40;97.20
2653;DHT22;1336;48.692;9.144;2023-02-01T09:12:22;6.40;97.20
2653;DHT22;1336;48.692;9.144;2023-02-01T09:13:12;6.30;97.20
2653;DHT22;1336;48.692;9.144;2023-02-01T09:14:04;6.30;97.20
2653;DHT22;1336;48.692;9.144;2023-02-01T09:14:55;6.30;97.20
2653;DHT22;1336;48.692;9.144;2023-02-01T09:15:50;6.30;97.20
2653;DHT22;1336;48.692;9.144;2023-02-01T09:16:41;6.20;97.20
2653;DHT22;1336;48.692;9.144;2023-02-01T09:17:33;6.20;97.20
2653;DHT22;1336;48.692;9.144;2023-02-01T09:18:24;6.20;97.20
2653;DHT22;1336;48.692;9.144;2023-02-01T09:19:15;6.20;97.20
2653;DHT22;1336;48.692;9.144;2023-02-01T09:20:07;6.20;97.20
2653;DHT22;1336;48.692;9.144;2023-02-01T09:21:04;6.20;97.20
2653;DHT22;1336;48.692;9.144;2023-02-01T09:21:57;6.20;97.20
2653;DHT22;1336;48.692;9.144;2023-02-01T09:22:48;6.10;97.20
2653;DHT22;1336;48.692;9.144;2023-02-01T09:23:40;6.10;97.20
2653;DHT22;1336;48.692;9.144;2023-02-01T09:24:31;6.10;97.20
2653;DHT22;1336;48.692;9.144;2023-02-01T09:25:23;6.10;97.20
2653;DHT22;1336;48.692;9.144;2023-02-01T09:26:13;6.10;97.20
2653;DHT22;1336;48.692;9.144;2023-02-01T09:27:05;6.10;97.20
2653;DHT22;1336;48.692;9.144;2023-02-01T09:27:56;6.10;97.20
2653;DHT22;1336;48.692;9.144;2023-02-01T09:28:47;6.10;97.20
2653;DHT22;1336;48.692;9.144;2023-02-01T09:29:38;6.00;97.20
2653;DHT22;1336;48.692;9.144;2023-02-01T09:30:30;6.10;97.20
2653;DHT22;1336;48.692;9.144;2023-02-01T09:31:21;6.10;97.20
2653;DHT22;1336;48.692;9.144;2023-02-01T09:32:12;6.10;97.20
2653;DHT22;1336;48.692;9.144;2023-02-01T09:33:04;6.10;97.20
2653;DHT22;1336;48.692;9.144;2023-02-01T09:33:55;6.10;97.20
2653;DHT22;1336;48.692;9.144;2023-02-01T09:34:47;6.10;97.20
2653;DHT22;1336;48.692;9.144;2023-02-01T09:35:37;6.10;97.20
2653;DHT22;1336;48.692;9.144;2023-02-01T09:36:29;6.00;97.20
2653;DHT22;1336;48.692;9.144;2023-02-01T09:37:21;6.10;97.20
2653;DHT22;1336;48.692;9.144;2023-02-01T09:38:13;6.00;97.20
2653;DHT22;1336;48.692;9.144;2023-02-01T09:39:04;6.00;97.20
2653;DHT22;1336;48.692;9.144;2023-02-01T09:39:55;6.10;97.20
2653;DHT22;1336;48.692;9.144;2023-02-01T09:40:47;6.10;97.20
2653;DHT22;1336;48.692;9.144;2023-02-01T09:41:50;6.10;97.20
2653;DHT22;1336;48.692;9.144;2023-02-01T09:44:07;6.10;97.20
2653;DHT22;1336;48.692;9.144;2023-02-01T09:45:06;6.10;97.20
2653;DHT22;1336;48.692;9.144;2023-02-01T09:46:10;6.10;97.20
2653;DHT22;1336;48.692;9.144;2023-02-01T09:47:11;6.10;97.20
2653;DHT22;1336;48.692;9.144;2023-02-01T09:48:08;6.10;97.20
2653;DHT22;1336;48.692;9.144;2023-02-01T09:49:05;6.10;97.20
2653;DHT22;1336;48.692;9.144;2023-02-01T09:50:03;6.10;97.20
2653;DHT22;1336;48.692;9.144;2023-02-01T09:50:57;6.10;97.20
2653;DHT22;1336;48.692;9.144;2023-02-01T09:51:51;6.20;97.20
2653;DHT22;1336;48.692;9.144;2023-02-01T09:52:51;6.20;97.20
2653;DHT22;1336;48.692;9.144;2023-02-01T09:53:46;6.20;97.20
2653;DHT22;1336;48.692;9.144;2023-02-01T09:54:44;6.30;97.20
2653;DHT22;1336;48.692;9.144;2023-02-01T09:55:40;6.30;97.20
2653;DHT22;1336;48.692;9.144;2023-02-01T09:56:36;6.40;97.20
2653;DHT22;1336;48.692;9.144;2023-02-01T09:57:40;6.40;97.20
2653;DHT22;1336;48.692;9.144;2023-02-01T09:58:36;6.40;97.20
2653;DHT22;1336;48.692;9.144;2023-02-01T09:59:33;6.40;97.20
2653;DHT22;1336;48.692;9.144;2023-02-01T10:00:28;6.40;97.20
2653;DHT22;1336;48.692;9.144;2023-02-01T10:01:23;6.40;97.20
2653;DHT22;1336;48.692;9.144;2023-02-01T10:02:17;6.50;97.20
2653;DHT22;1336;48.692;9.144;2023-02-01T10:03:12;6.50;97.20
2653;DHT22;1336;48.692;9.144;2023-02-01T10:04:06;6.50;97.20
2653;DHT22;1336;48.692;9.144;2023-02-01T10:04:59;6.50;97.20
2653;DHT22;1336;48.692;9.144;2023-02-01T10:06:10;6.50;97.20
2653;DHT22;1336;48.692;9.144;2023-02-01T10:07:17;6.50;97.20
2653;DHT22;1336;48.692;9.144;2023-02-01T10:08:21;6.50;97.20
2653;DHT22;1336;48.692;9.144;2023-02-01T10:09:26;6.50;97.20
2653;DHT22;1336;48.692;9.144;2023-02-01T10:10:27;6.50;97.20
2653;DHT22;1336;48.692;9.144;2023-02-01T10:11:26;6.50;97.20
2653;DHT22;1336;48.692;9.144;2023-02-01T10:12:40;6.50;97.20
2653;DHT22;1336;48.692;9.144;2023-02-01T10:13:46;6.50;97.20
2653;DHT22;1336;48.692;9.144;2023-02-01T10:14:51;6.50;97.20
2653;DHT22;1336;48.692;9.144;2023-02-01T10:16:00;6.50;97.20
2653;DHT22;1336;48.692;9.144;2023-02-01T10:16:59;6.50;97.20
2653;DHT22;1336;48.692;9.144;2023-02-01T10:18:01;6.50;97.20
2653;DHT22;1336;48.692;9.144;2023-02-01T10:19:15;6.50;97.20
2653;DHT22;1336;48.692;9.144;2023-02-01T10:20:15;6.50;97.20
2653;DHT22;1336;48.692;9.144;2023-02-01T10:21:15;6.50;97.20
2653;DHT22;1336;48.692;9.144;2023-02-01T10:22:09;6.60;97.20
2653;DHT22;1336;48.692;9.144;2023-02-01T10:23:07;6.60;97.20
2653;DHT22;1336;48.692;9.144;2023-02-01T10:24:20;6.60;97.20
2653;DHT22;1336;48.692;9.144;2023-02-01T10:25:20;6.70;97.20
2653;DHT22;1336;48.692;9.144;2023-02-01T10:26:18;6.70;97.20
2653;DHT22;1336;48.692;9.144;2023-02-01T10:27:14;6.80;97.20
2653;DHT22;1336;48.692;9.144;2023-02-01T10:28:11;6.90;97.20
2653;DHT22;1336;48.692;9.144;2023-02-01T10:29:11;6.90;97.20
2653;DHT22;1336;48.692;9.144;2023-02-01T10:30:17;6.90;97.20
2653;DHT22;1336;48.692;9.144;2023-02-01T10:31:09;6.90;97.20
2653;DHT22;1336;48.692;9.144;2023-02-01T10:32:01;6.90;97.20
2653;DHT22;1336;48.692;9.144;2023-02-01T10:33:07;6.80;97.20
2653;DHT22;1336;48.692;9.144;2023-02-01T10:34:11;6.80;97.20
2653;DHT22;1336;48.692;9.144;2023-02-01T10:35:12;6.80;97.20
2653;DHT22;1336;48.692;9.144;2023-02-01T10:36:11;6.70;97.20
2653;DHT22;1336;48.692;9.144;2023-02-01T10:37:15;6.70;97.20
2653;DHT22;1336;48.692;9.144;2023-02-01T10:38:27;6.70;97.20
2653;DHT22;1336;48.692;9.144;2023-02-01T10:39:20;6.70;97.20
2653;DHT22;1336;48.692;9.144;2023-02-01T10:40:16;6.70;97.20
2653;DHT22;1336;48.692;9.144;2023-02-01T10:41:13;6.80;97.20
2653;DHT22;1336;48.692;9.144;2023-02-01T10:42:05;6.80;97.20
2653;DHT22;1336;48.692;9.144;2023-02-01T10:42:59;6.80;97.20
2653;DHT22;1336;48.692;9.144;2023-02-01T10:43:55;6.80;97.20
2653;DHT22;1336;48.692;9.144;2023-02-01T10:44:48;6.80;97.20
2653;DHT22;1336;48.692;9.144;2023-02-01T10:45:39;6.90;97.20
2653;DHT22;1336;48.692;9.144;2023-02-01T10:46:33;6.90;97.20
2653;DHT22;1336;48.692;9.144;2023-02-01T10:47:24;6.90;97.20
2653;DHT22;1336;48.692;9.144;2023-02-01T10:48:16;6.90;97.20
2653;DHT22;1336;48.692;9.144;2023-02-01T10:49:16;6.90;97.20
2653;DHT22;1336;48.692;9.144;2023-02-01T10:50:17;6.90;97.20
2653;DHT22;1336;48.692;9.144;2023-02-01T10:51:16;6.90;97.20
2653;DHT22;1336;48.692;9.144;2023-02-01T10:52:14;7.00;97.20
2653;DHT22;1336;48.692;9.144;2023-02-01T10:53:09;7.00;97.20
2653;DHT22;1336;48.692;9.144;2023-02-01T10:54:05;7.00;97.20
2653;DHT22;1336;48.692;9.144;2023-02-01T10:55:31;7.10;97.20
2653;DHT22;1336;48.692;9.144;2023-02-01T10:56:25;7.10;97.20
2653;DHT22;1336;48.692;9.144;2023-02-01T10:57:22;7.10;97.20
2653;DHT22;1336;48.692;9.144;2023-02-01T10:58:17;7.10;97.20
2653;DHT22;1336;48.692;9.144;2023-02-01T10:59:17;7.10;97.20
2653;DHT22;1336;48.692;9.144;2023-02-01T11:00:19;7.10;97.20
2653;DHT22;1336;48.692;9.144;2023-02-01T11:01:16;7.10;97.20
2653;DHT22;1336;48.692;9.144;2023-02-01T11:02:19;7.10;97.20
2653;DHT22;1336;48.692;9.144;2023-02-01T11:03:22;7.10;97.20
2653;DHT22;1336;48.692;9.144;2023-02-01T11:04:24;7.10;97.20
2653;DHT22;1336;48.692;9.144;2023-02-01T11:05:17;7.10;97.20
2653;DHT22;1336;48.692;9.144;2023-02-01T11:06:14;7.10;97.20
2653;DHT22;1336;48.692;9.144;2023-02-01T11:07:15;7.10;97.20
2653;DHT22;1336;48.692;9.144;2023-02-01T11:08:16;7.10;97.20
2653;DHT22;1336;48.692;9.144;2023-02-01T11:09:16;7.10;97.20
2653;DHT22;1336;48.692;9.144;2023-02-01T11:11:29;7.10;97.20
2653;DHT22;1336;48.692;9.144;2023-02-01T11:12:25;7.20;97.20
2653;DHT22;1336;48.692;9.144;2023-02-01T11:13:18;7.20;97.20
2653;DHT22;1336;48.692;9.144;2023-02-01T11:14:14;7.20;97.20
2653;DHT22;1336;48.692;9.144;2023-02-01T11:15:15;7.20;97.20
2653;DHT22;1336;48.692;9.144;2023-02-01T11:16:12;7.20;97.20
2653;DHT22;1336;48.692;9.144;2023-02-01T11:17:17;7.20;97.20
2653;DHT22;1336;48.692;9.144;2023-02-01T11:18:16;7.30;97.20
2653;DHT22;1336;48.692;9.144;2023-02-01T11:19:14;7.30;97.20
2653;DHT22;1336;48.692;9.144;2023-02-01T11:20:13;7.20;97.20
2653;DHT22;1336;48.692;9.144;2023-02-01T11:21:06;7.30;97.20
2653;DHT22;1336;48.692;9.144;2023-02-01T11:21:59;7.30;97.20
2653;DHT22;1336;48.692;9.144;2023-02-01T11:22:53;7.30;97.20
2653;DHT22;1336;48.692;9.144;2023-02-01T11:23:46;7.30;97.20
2653;DHT22;1336;48.692;9.144;2023-02-01T11:24:37;7.30;97.20
2653;DHT22;1336;48.692;9.144;2023-02-01T11:25:37;7.40;97.20
2653;DHT22;1336;48.692;9.144;2023-02-01T11:26:29;7.40;97.20
2653;DHT22;1336;48.692;9.144;2023-02-01T11:27:24;7.40;97.20
2653;DHT22;1336;48.692;9.144;2023-02-01T11:28:16;7.40;97.20
2653;DHT22;1336;48.692;9.144;2023-02-01T11:29:11;7.40;97.20
2653;DHT22;1336;48.692;9.144;2023-02-01T11:30:04;7.40;97.20
2653;DHT22;1336;48.692;9.144;2023-02-01T11:30:58;7.40;97.20
2653;DHT22;1336;48.692;9.144;2023-02-01T11:31:50;7.40;97.20
2653;DHT22;1336;48.692;9.144;2023-02-01T11:32:42;7.40;97.20
2653;DHT22;1336;48.692;9.144;2023-02-01T11:33:35;7.40;97.20
2653;DHT22;1336;48.692;9.144;2023-02-01T11:34:35;7.50;97.20
2653;DHT22;1336;48.692;9.144;2023-02-01T11:35:28;7.60;97.20
2653;DHT22;1336;48.692;9.144;2023-02-01T11:36:23;7.70;97.20
2653;DHT22;1336;48.692;9.144;2023-02-01T11:37:19;7.70;97.20
2653;DHT22;1336;48.692;9.144;2023-02-01T11:38:26;7.80;97.20
2653;DHT22;1336;48.692;9.144;2023-02-01T11:39:24;7.80;97.20
2653;DHT22;1336;48.692;9.144;2023-02-01T11:40:25;7.70;97.20
2653;DHT22;1336;48.692;9.144;2023-02-01T11:41:21;7.70;97.20
2653;DHT22;1336;48.692;9.144;2023-02-01T11:42:16;7.70;97.20
2653;DHT22;1336;48.692;9.144;2023-02-01T11:43:14;7.70;97.20
2653;DHT22;1336;48.692;9.144;2023-02-01T11:44:19;7.70;97.20
2653;DHT22;1336;48.692;9.144;2023-02-01T11:45:19;7.70;97.20
2653;DHT22;1336;48.692;9.144;2023-02-01T11:46:18;7.70;97.20
2653;DHT22;1336;48.692;9.144;2023-02-01T11:47:24;7.70;97.20
2653;DHT22;1336;48.692;9.144;2023-02-01T11:48:16;7.70;97.20
2653;DHT22;1336;48.692;9.144;2023-02-01T11:49:20;7.60;97.20
2653;DHT22;1336;48.692;9.144;2023-02-01T11:50:16;7.60;97.20
2653;DHT22;1336;48.692;9.144;2023-02-01T11:51:19;7.60;97.20
2653;DHT22;1336;48.692;9.144;2023-02-01T11:52:23;7.50;97.20
2653;DHT22;1336;48.692;9.144;2023-02-01T11:53:31;7.50;97.20
2653;DHT22;1336;48.692;9.144;2023-02-01T11:54:34;7.50;97.20
2653;DHT22;1336;48.692;9.144;2023-02-01T11:55:37;7.50;97.20
2653;DHT22;1336;48.692;9.144;2023-02-01T11:56:35;7.40;97.20
2653;DHT22;1336;48.692;9.144;2023-02-01T11:57:39;7.40;97.20
2653;DHT22;1336;48.692;9.144;2023-02-01T11:58:52;7.40;97.20
2653;DHT22;1336;48.692;9.144;2023-02-01T11:59:58;7.40;97.20
2653;DHT22;1336;48.692;9.144;2023-02-01T12:01:01;7.40;97.20
2653;DHT22;1336;48.692;9.144;2023-02-01T12:02:08;7.30;97.20
2653;DHT22;1336;48.692;9.144;2023-02-01T12:03:34;7.30;97.20
2653;DHT22;1336;48.692;9.144;2023-02-01T12:04:49;7.30;97.20